createdAt,value
2023-04-24T00:01:23.034Z,100762.16
2023-04-24T00:03:52.560Z,100758.28
2023-04-24T00:06:22.777Z,100750.31
2023-04-24T00:08:51.831Z,100759.03
2023-04-24T00:11:25.640Z,100751.78
2023-04-24T00:13:55.563Z,100743.81
2023-04-24T00:16:25.925Z,100743.91
2023-04-24T00:18:58.367Z,100744.31
2023-04-24T00:21:28.354Z,100738.75
2023-04-24T00:24:00.109Z,100738.00
2023-04-24T00:26:29.531Z,100736.06
2023-04-24T00:28:59.070Z,100744.72
2023-04-24T00:31:29.737Z,100733.25
2023-04-24T00:34:00.115Z,100728.84
2023-04-24T00:36:29.409Z,100728.94
2023-04-24T00:38:59.302Z,100730.97
2023-04-24T00:41:28.761Z,100730.88
2023-04-24T00:43:58.020Z,100724.88
2023-04-24T00:46:30.975Z,100735.88
2023-04-24T00:49:02.103Z,100737.34
2023-04-24T00:51:32.642Z,100738.88
2023-04-24T00:54:02.780Z,100742.03
2023-04-24T00:56:32.811Z,100745.19
2023-04-24T00:59:02.223Z,100751.53
2023-04-24T01:01:32.198Z,100741.28
2023-04-24T01:04:04.960Z,100736.88
2023-04-24T01:06:35.217Z,100734.97
2023-04-24T01:09:06.377Z,100730.94
2023-04-24T01:11:35.465Z,100726.25
2023-04-24T01:14:05.675Z,100719.06
2023-04-24T01:16:35.149Z,100715.16
2023-04-24T01:19:04.767Z,100709.59
2023-04-24T01:21:39.260Z,100705.09
2023-04-24T01:24:08.550Z,100711.06
2023-04-24T01:26:37.526Z,100708.75
2023-04-24T01:29:06.661Z,100711.13
2023-04-24T01:31:37.117Z,100712.78
2023-04-24T01:34:06.563Z,100712.78
2023-04-24T01:36:37.028Z,100708.75
2023-04-24T01:39:06.064Z,100712.31
2023-04-24T01:41:35.512Z,100711.91
2023-04-24T01:44:04.753Z,100714.31
2023-04-24T01:46:36.528Z,100708.81
2023-04-24T01:49:07.412Z,100707.16
2023-04-24T01:51:39.481Z,100699.50
2023-04-24T01:54:08.734Z,100703.59
2023-04-24T01:56:42.956Z,100703.09
2023-04-24T01:59:15.745Z,100706.22
2023-04-24T02:01:45.329Z,100704.22
2023-04-24T02:04:15.483Z,100690.13
2023-04-24T02:06:45.427Z,100688.47
2023-04-24T02:09:15.100Z,100694.31
2023-04-24T02:11:44.214Z,100688.72
2023-04-24T02:14:14.079Z,100686.34
2023-04-24T02:16:43.682Z,100692.81
2023-04-24T02:19:12.881Z,100701.41
2023-04-24T02:21:42.549Z,100694.16
2023-04-24T02:24:11.451Z,100695.69
2023-04-24T02:26:40.643Z,100688.09
2023-04-24T02:29:09.738Z,100685.53
2023-04-24T02:31:38.739Z,100684.34
2023-04-24T02:34:07.742Z,100674.06
2023-04-24T02:36:37.658Z,100666.84
2023-04-24T02:39:07.163Z,100674.81
2023-04-24T02:41:36.195Z,100675.84
2023-04-24T02:44:05.404Z,100675.78
2023-04-24T02:46:34.683Z,100667.72
2023-04-24T02:49:04.502Z,100663.16
2023-04-24T02:51:34.154Z,100660.03
2023-04-24T02:54:03.422Z,100650.13
2023-04-24T02:56:32.844Z,100647.75
2023-04-24T02:59:02.685Z,100659.44
2023-04-24T03:01:32.780Z,100653.97
2023-04-24T03:04:02.431Z,100645.78
2023-04-24T03:06:34.694Z,100648.28
2023-04-24T03:09:05.365Z,100654.72
2023-04-24T03:11:35.058Z,100653.06
2023-04-24T03:14:04.418Z,100649.63
2023-04-24T03:16:34.913Z,100650.63
2023-04-24T03:19:04.840Z,100653.44
2023-04-24T03:21:37.692Z,100649.75
2023-04-24T03:24:06.922Z,100656.94
2023-04-24T03:26:36.262Z,100667.16
2023-04-24T03:29:30.239Z,100652.94
2023-04-24T03:32:00.283Z,100656.94
2023-04-24T03:34:30.026Z,100657.00
2023-04-24T03:37:00.464Z,100659.25
2023-04-24T03:39:35.491Z,100659.69
2023-04-24T03:42:04.866Z,100656.28
2023-04-24T03:44:45.028Z,100656.00
2023-04-24T03:47:14.030Z,100665.00
2023-04-24T03:49:43.754Z,100657.94
2023-04-24T03:52:13.053Z,100664.19
2023-04-24T03:54:42.056Z,100672.69
2023-04-24T03:57:11.439Z,100682.41
2023-04-24T03:59:45.847Z,100669.41
2023-04-24T04:02:19.735Z,100671.78
2023-04-24T04:04:49.559Z,100678.34
2023-04-24T04:07:19.389Z,100673.53
2023-04-24T04:09:48.381Z,100670.41
2023-04-24T04:12:18.315Z,100668.69
2023-04-24T04:14:47.353Z,100674.28
2023-04-24T04:17:16.919Z,100683.47
2023-04-24T04:19:46.553Z,100679.31
2023-04-24T04:22:15.908Z,100688.38
2023-04-24T04:24:48.836Z,100687.34
2023-04-24T04:27:18.347Z,100685.66
2023-04-24T04:30:07.693Z,100683.50
2023-04-24T04:32:44.850Z,100683.47
2023-04-24T04:35:13.993Z,100687.34
2023-04-24T04:37:43.303Z,100693.09
2023-04-24T04:40:32.133Z,100692.72
2023-04-24T04:43:05.885Z,100690.97
2023-04-24T04:45:44.664Z,100690.91
2023-04-24T04:48:33.348Z,100675.22
2023-04-24T04:51:04.565Z,100685.66
2023-04-24T04:53:33.689Z,100676.84
2023-04-24T04:56:03.398Z,100669.72
2023-04-24T04:58:43.649Z,100664.13
2023-04-24T05:01:16.156Z,100663.50
2023-04-24T05:03:48.547Z,100664.63
2023-04-24T05:06:19.235Z,100658.47
2023-04-24T05:08:50.499Z,100655.06
2023-04-24T05:11:33.023Z,100655.94
2023-04-24T05:14:04.072Z,100648.06
2023-04-24T05:16:39.381Z,100649.63
2023-04-24T05:19:09.655Z,100652.69
2023-04-24T05:21:45.251Z,100645.56
2023-04-24T05:24:14.438Z,100645.94
2023-04-24T05:27:06.639Z,100638.59
2023-04-24T05:29:41.139Z,100636.13
2023-04-24T05:32:11.383Z,100633.50
2023-04-24T05:34:40.473Z,100638.06
2023-04-24T05:37:11.698Z,100640.59
2023-04-24T05:39:41.069Z,100639.91
2023-04-24T05:42:11.200Z,100632.66
2023-04-24T05:44:40.250Z,100637.38
2023-04-24T05:47:09.146Z,100630.94
2023-04-24T05:49:38.263Z,100623.47
2023-04-24T05:52:10.582Z,100622.44
2023-04-24T05:54:41.746Z,100631.44
2023-04-24T05:57:12.706Z,100627.88
2023-04-24T06:00:05.876Z,100621.25
2023-04-24T06:02:42.302Z,100616.59
2023-04-24T06:05:14.338Z,100611.94
2023-04-24T06:07:43.599Z,100612.38
2023-04-24T06:10:12.629Z,100605.94
2023-04-24T06:12:44.572Z,100612.38
2023-04-24T06:15:18.809Z,100609.63
2023-04-24T06:18:03.916Z,100615.97
2023-04-24T06:20:33.390Z,100615.59
2023-04-24T06:23:04.248Z,100610.91
2023-04-24T06:25:35.574Z,100604.72
2023-04-24T06:28:04.735Z,100603.84
2023-04-24T06:30:33.770Z,100609.59
2023-04-24T06:33:12.702Z,100615.00
2023-04-24T06:35:48.319Z,100611.72
2023-04-24T06:38:17.811Z,100609.09
2023-04-24T06:40:47.370Z,100605.44
2023-04-24T06:43:16.959Z,100619.06
2023-04-24T06:45:46.090Z,100619.91
2023-04-24T06:48:15.087Z,100619.19
2023-04-24T06:50:44.089Z,100615.00
2023-04-24T06:53:14.457Z,100608.72
2023-04-24T06:55:44.956Z,100624.88
2023-04-24T06:58:14.469Z,100633.28
2023-04-24T07:00:43.358Z,100646.03
2023-04-24T07:03:12.756Z,100644.38
2023-04-24T07:05:42.045Z,100651.16
2023-04-24T07:08:13.144Z,100657.72
2023-04-24T07:10:42.214Z,100671.22
2023-04-24T07:13:11.205Z,100668.44
2023-04-24T07:15:40.793Z,100662.56
2023-04-24T07:18:09.866Z,100669.63
2023-04-24T07:20:39.246Z,100666.09
2023-04-24T07:23:10.381Z,100670.50
2023-04-24T07:25:40.236Z,100680.25
2023-04-24T07:28:09.203Z,100679.72
2023-04-24T07:30:38.382Z,100670.13
2023-04-24T07:33:08.657Z,100674.56
2023-04-24T07:35:37.914Z,100669.16
2023-04-24T07:38:07.298Z,100670.22
2023-04-24T07:40:36.184Z,100670.38
2023-04-24T07:43:05.219Z,100676.53
2023-04-24T07:45:37.933Z,100677.50
2023-04-24T07:48:07.313Z,100667.06
2023-04-24T07:50:37.784Z,100668.53
2023-04-24T07:53:06.850Z,100677.44
2023-04-24T07:55:35.794Z,100677.16
2023-04-24T07:58:04.965Z,100676.41
2023-04-24T08:00:33.991Z,100680.63
2023-04-24T08:03:03.402Z,100686.69
2023-04-24T08:05:32.539Z,100681.38
2023-04-24T08:08:01.545Z,100689.22
2023-04-24T08:10:30.533Z,100685.09
2023-04-24T08:12:59.509Z,100685.53
2023-04-24T08:15:29.967Z,100688.06
2023-04-24T08:18:01.101Z,100693.38
2023-04-24T08:20:30.285Z,100689.00
2023-04-24T08:22:59.800Z,100693.72
2023-04-24T08:25:28.800Z,100691.75
2023-04-24T08:27:57.789Z,100683.47
2023-04-24T08:30:26.737Z,100677.25
2023-04-24T08:32:55.758Z,100691.50
2023-04-24T08:35:24.910Z,100678.31
2023-04-24T08:37:55.648Z,100683.09
2023-04-24T08:40:34.011Z,100690.44
2023-04-24T08:43:03.348Z,100686.47
2023-04-24T08:45:32.687Z,100696.59
2023-04-24T08:48:03.699Z,100705.66
2023-04-24T08:50:34.403Z,100712.34
2023-04-24T08:53:05.194Z,100709.88
2023-04-24T08:55:35.219Z,100712.34
2023-04-24T08:58:04.984Z,100721.81
2023-04-24T09:00:34.688Z,100716.88
2023-04-24T09:03:07.270Z,100722.31
2023-04-24T09:05:36.462Z,100728.31
2023-04-24T09:08:07.649Z,100721.69
2023-04-24T09:10:37.312Z,100720.69
2023-04-24T09:13:06.400Z,100724.00
2023-04-24T09:15:35.556Z,100719.09
2023-04-24T09:18:05.455Z,100710.63
2023-04-24T09:20:35.288Z,100715.94
2023-04-24T09:23:05.271Z,100726.13
2023-04-24T09:25:35.497Z,100722.13
2023-04-24T09:28:06.210Z,100725.34
2023-04-24T09:30:35.288Z,100726.06
2023-04-24T09:33:18.535Z,100727.78
2023-04-24T09:35:54.045Z,100732.88
2023-04-24T09:38:33.771Z,100733.03
2023-04-24T09:41:05.348Z,100729.25
2023-04-24T09:43:34.681Z,100737.25
2023-04-24T09:46:09.353Z,100740.16
2023-04-24T09:48:39.894Z,100740.97
2023-04-24T09:51:12.441Z,100753.38
2023-04-24T09:53:41.979Z,100758.47
2023-04-24T09:56:15.474Z,100763.09
2023-04-24T09:58:44.543Z,100773.41
2023-04-24T10:01:13.605Z,100768.63
2023-04-24T10:03:44.933Z,100775.88
2023-04-24T10:06:15.073Z,100778.22
2023-04-24T10:08:44.448Z,100777.31
2023-04-24T10:11:13.666Z,100776.69
2023-04-24T10:13:43.222Z,100791.59
2023-04-24T10:16:12.674Z,100790.25
2023-04-24T10:18:41.958Z,100789.25
2023-04-24T10:21:11.688Z,100794.78
2023-04-24T10:23:42.140Z,100800.13
2023-04-24T10:26:19.478Z,100806.88
2023-04-24T10:28:49.960Z,100803.09
2023-04-24T10:31:20.452Z,100803.06
2023-04-24T10:33:51.843Z,100811.03
2023-04-24T10:36:24.446Z,100806.06
2023-04-24T10:38:57.091Z,100798.16
2023-04-24T10:41:28.250Z,100800.56
2023-04-24T10:44:11.572Z,100800.41
2023-04-24T10:46:42.551Z,100805.00
2023-04-24T10:49:11.635Z,100811.03
2023-04-24T10:51:57.263Z,100814.31
2023-04-24T10:54:31.821Z,100822.38
2023-04-24T10:57:24.972Z,100829.75
2023-04-24T11:00:17.970Z,100839.94
2023-04-24T11:02:54.461Z,100849.31
2023-04-24T11:05:24.520Z,100847.66
2023-04-24T11:08:16.413Z,100851.72
2023-04-24T11:10:49.734Z,100851.97
2023-04-24T11:13:23.301Z,100857.72
2023-04-24T11:16:40.461Z,100862.25
2023-04-24T11:19:18.519Z,100868.63
2023-04-24T11:21:56.266Z,100870.25
2023-04-24T11:24:34.402Z,100872.06
2023-04-24T11:27:06.462Z,100883.69
2023-04-24T11:29:52.182Z,100874.50
2023-04-24T11:32:40.489Z,100879.31
2023-04-24T11:35:11.351Z,100891.97
2023-04-24T11:37:42.713Z,100895.72
2023-04-24T11:40:13.641Z,100887.16
2023-04-24T11:42:47.231Z,100885.72
2023-04-24T11:45:18.821Z,100880.19
2023-04-24T11:47:47.932Z,100888.31
2023-04-24T11:50:18.974Z,100893.47
2023-04-24T11:52:50.213Z,100901.53
2023-04-24T11:55:19.462Z,100895.16
2023-04-24T11:57:53.197Z,100891.97
2023-04-24T12:00:29.019Z,100892.66
2023-04-24T12:03:12.586Z,100906.19
2023-04-24T12:05:42.719Z,100903.13
2023-04-24T12:08:11.908Z,100915.91
2023-04-24T12:10:40.894Z,100912.28
2023-04-24T12:13:13.376Z,100906.84
2023-04-24T12:15:43.122Z,100905.88
2023-04-24T12:18:15.384Z,100914.75
2023-04-24T12:20:44.841Z,100920.22
2023-04-24T12:23:13.748Z,100926.66
2023-04-24T12:25:42.985Z,100922.28
2023-04-24T12:28:14.144Z,100929.41
2023-04-24T12:30:53.106Z,100926.56
2023-04-24T12:33:23.665Z,100937.69
2023-04-24T12:35:56.381Z,100937.84
2023-04-24T12:38:27.512Z,100943.94
2023-04-24T12:41:15.100Z,100953.41
2023-04-24T12:43:55.011Z,100943.00
2023-04-24T12:46:24.097Z,100949.34
2023-04-24T12:48:53.589Z,100949.34
2023-04-24T12:51:22.640Z,100956.09
2023-04-24T12:53:51.737Z,100965.00
2023-04-24T12:56:21.150Z,100968.22
2023-04-24T12:58:50.067Z,100970.50
2023-04-24T13:01:19.104Z,100975.41
2023-04-24T13:03:48.486Z,100972.22
2023-04-24T13:06:17.528Z,100983.25
2023-04-24T13:08:46.684Z,100977.63
2023-04-24T13:11:15.922Z,100980.84
2023-04-24T13:13:45.215Z,100984.69
2023-04-24T13:16:14.176Z,100988.25
2023-04-24T13:18:43.109Z,100995.66
2023-04-24T13:21:12.108Z,100989.22
2023-04-24T13:23:41.607Z,100984.88
2023-04-24T13:26:11.060Z,100991.00
2023-04-24T13:28:40.125Z,100997.25
2023-04-24T13:31:09.121Z,101000.97
2023-04-24T13:33:38.080Z,101007.22
2023-04-24T13:36:07.139Z,101008.81
2023-04-24T13:38:36.790Z,101008.09
2023-04-24T13:41:05.772Z,101003.50
2023-04-24T13:43:34.901Z,101009.44
2023-04-24T13:46:04.959Z,101012.09
2023-04-24T13:48:33.916Z,101015.41
2023-04-24T13:51:03.049Z,101022.25
2023-04-24T13:53:32.014Z,101031.09
2023-04-24T13:56:00.978Z,101033.38
2023-04-24T13:58:29.965Z,101044.69
2023-04-24T14:00:59.135Z,101050.63
2023-04-24T14:03:28.294Z,101058.59
2023-04-24T14:05:57.573Z,101060.81
2023-04-24T14:08:27.121Z,101066.34
2023-04-24T14:10:56.212Z,101077.19
2023-04-24T14:13:25.474Z,101090.00
2023-04-24T14:15:54.620Z,101087.69
2023-04-24T14:18:23.622Z,101089.03
2023-04-24T14:20:52.485Z,101087.59
2023-04-24T14:23:21.705Z,101093.41
2023-04-24T14:25:53.486Z,101106.72
2023-04-24T14:28:23.454Z,101110.84
2023-04-24T14:30:52.709Z,101111.91
2023-04-24T14:33:21.783Z,101107.63
2023-04-24T14:35:51.055Z,101122.94
2023-04-24T14:38:20.098Z,101124.53
2023-04-24T14:43:21.693Z,101127.78
2023-04-24T14:45:50.655Z,101133.53
2023-04-24T14:48:19.915Z,101142.00
2023-04-24T14:50:49.015Z,101152.53
2023-04-24T14:53:18.307Z,101152.72
2023-04-24T14:55:48.093Z,101153.03
2023-04-24T14:58:17.127Z,101165.50
2023-04-24T15:00:46.144Z,101163.75
2023-04-24T15:03:15.335Z,101170.88
2023-04-24T15:05:44.673Z,101174.41
2023-04-24T15:08:13.907Z,101179.78
2023-04-24T15:10:42.765Z,101185.31
2023-04-24T15:13:11.785Z,101184.78
2023-04-24T15:15:40.958Z,101192.97
2023-04-24T15:18:14.060Z,101197.69
2023-04-24T15:20:43.394Z,101200.28
2023-04-24T15:23:12.876Z,101203.56
2023-04-24T15:25:42.329Z,101218.28
2023-04-24T15:28:11.895Z,101220.31
2023-04-24T15:30:42.013Z,101235.91
2023-04-24T15:33:11.825Z,101248.38
2023-04-24T15:35:40.897Z,101250.00
2023-04-24T15:38:10.368Z,101257.13
2023-04-24T15:40:39.592Z,101261.03
2023-04-24T15:43:08.700Z,101267.66
2023-04-24T15:45:38.182Z,101263.00
2023-04-24T15:48:07.467Z,101268.34
2023-04-24T15:50:38.871Z,101265.97
2023-04-24T15:53:08.215Z,101279.13
2023-04-24T15:55:38.398Z,101281.91
2023-04-24T15:58:07.552Z,101283.34
2023-04-24T16:00:37.975Z,101290.09
2023-04-24T16:03:09.930Z,101296.53
2023-04-24T16:05:39.374Z,101306.88
2023-04-24T16:08:08.918Z,101317.94
2023-04-24T16:10:38.004Z,101318.66
2023-04-24T16:13:07.357Z,101325.56
2023-04-24T16:15:39.825Z,101323.38
2023-04-24T16:18:09.082Z,101328.97
2023-04-24T16:20:38.212Z,101331.03
2023-04-24T16:23:07.304Z,101332.91
2023-04-24T16:25:36.343Z,101338.00
2023-04-24T16:28:05.392Z,101347.16
2023-04-24T16:30:34.647Z,101338.84
2023-04-24T16:33:08.170Z,101348.75
2023-04-24T16:35:37.745Z,101355.91
2023-04-24T16:38:06.651Z,101357.94
2023-04-24T16:40:35.734Z,101367.75
2023-04-24T16:43:04.829Z,101370.09
2023-04-24T16:45:33.882Z,101375.38
2023-04-24T16:48:03.452Z,101377.19
2023-04-24T16:50:32.826Z,101375.75
2023-04-24T16:53:02.209Z,101376.13
2023-04-24T16:55:31.650Z,101382.84
2023-04-24T16:58:00.615Z,101392.66
2023-04-24T17:00:29.668Z,101391.31
2023-04-24T17:02:58.722Z,101393.72
2023-04-24T17:05:28.172Z,101403.00
2023-04-24T17:07:57.739Z,101405.75
2023-04-24T17:10:26.856Z,101410.31
2023-04-24T17:12:56.363Z,101414.44
2023-04-24T17:15:25.730Z,101419.84
2023-04-24T17:17:54.964Z,101427.63
2023-04-24T17:20:24.532Z,101426.31
2023-04-24T17:22:54.162Z,101439.63
2023-04-24T17:25:23.400Z,101440.97
2023-04-24T17:27:52.561Z,101446.25
2023-04-24T17:30:21.734Z,101452.22
2023-04-24T17:32:51.261Z,101453.00
2023-04-24T17:35:22.100Z,101458.97
2023-04-24T17:37:51.838Z,101459.97
2023-04-24T17:40:20.821Z,101466.56
2023-04-24T17:42:49.884Z,101468.72
2023-04-24T17:45:18.783Z,101476.91
2023-04-24T17:47:47.871Z,101472.97
2023-04-24T17:50:16.829Z,101473.25
2023-04-24T17:52:45.860Z,101477.44
2023-04-24T17:55:14.839Z,101481.81
2023-04-24T17:57:43.978Z,101494.38
2023-04-24T18:00:13.631Z,101494.06
2023-04-24T18:02:42.857Z,101507.25
2023-04-24T18:05:11.937Z,101503.31
2023-04-24T18:07:40.877Z,101501.31
2023-04-24T18:10:13.011Z,101509.47
2023-04-24T18:12:42.133Z,101515.03
2023-04-24T18:15:14.803Z,101519.41
2023-04-24T18:17:44.715Z,101517.22
2023-04-24T18:20:17.961Z,101517.97
2023-04-24T18:22:47.894Z,101525.75
2023-04-24T18:25:17.396Z,101523.88
2023-04-24T18:27:46.706Z,101518.03
2023-04-24T18:30:15.735Z,101521.34
2023-04-24T18:32:44.895Z,101524.19
2023-04-24T18:35:14.310Z,101534.59
2023-04-24T18:37:43.459Z,101528.59
2023-04-24T18:40:13.379Z,101529.06
2023-04-24T18:42:42.785Z,101527.50
2023-04-24T18:45:15.003Z,101527.16
2023-04-24T18:47:45.013Z,101525.94
2023-04-24T18:50:15.487Z,101531.88
2023-04-24T18:52:44.559Z,101534.28
2023-04-24T18:55:13.510Z,101535.09
2023-04-24T18:57:42.515Z,101539.22
2023-04-24T19:00:12.029Z,101532.66
2023-04-24T19:02:41.509Z,101542.41
2023-04-24T19:05:13.576Z,101541.94
2023-04-24T19:07:43.283Z,101538.63
2023-04-24T19:10:15.769Z,101539.72
2023-04-24T19:12:47.664Z,101547.19
2023-04-24T19:15:19.833Z,101548.72
2023-04-24T19:17:51.508Z,101548.47
2023-04-24T19:20:23.725Z,101546.31
2023-04-24T19:22:52.808Z,101546.88
2023-04-24T19:25:21.782Z,101542.22
2023-04-24T19:27:50.738Z,101547.91
2023-04-24T19:30:19.640Z,101539.44
2023-04-24T19:32:48.981Z,101542.94
2023-04-24T19:35:19.467Z,101536.16
2023-04-24T19:37:48.457Z,101544.41
2023-04-24T19:40:17.589Z,101530.97
2023-04-24T19:42:46.824Z,101528.50
2023-04-24T19:45:16.612Z,101535.84
2023-04-24T19:47:47.080Z,101523.72
2023-04-24T19:50:16.415Z,101526.53
2023-04-24T19:52:45.314Z,101524.81
2023-04-24T19:55:14.681Z,101527.56
2023-04-24T19:57:43.894Z,101521.97
2023-04-24T20:00:13.678Z,101524.50
2023-04-24T20:02:42.769Z,101527.97
2023-04-24T20:05:12.619Z,101530.94
2023-04-24T20:07:41.856Z,101535.44
2023-04-24T20:10:11.419Z,101532.16
2023-04-24T20:12:40.675Z,101526.97
2023-04-24T20:15:10.186Z,101522.50
2023-04-24T20:17:39.266Z,101533.44
2023-04-24T20:20:10.229Z,101528.88
2023-04-24T20:22:42.296Z,101541.38
2023-04-24T20:25:14.267Z,101532.34
2023-04-24T20:27:43.351Z,101522.03
2023-04-24T20:30:16.713Z,101536.91
2023-04-24T20:32:46.215Z,101538.94
2023-04-24T20:35:15.162Z,101535.69
2023-04-24T20:37:44.272Z,101545.34
2023-04-24T20:40:14.979Z,101537.56
2023-04-24T20:42:47.107Z,101542.63
2023-04-24T20:45:16.613Z,101539.19
2023-04-24T20:47:46.198Z,101539.97
2023-04-24T20:50:16.152Z,101548.03
2023-04-24T20:52:45.081Z,101546.13
2023-04-24T20:55:14.414Z,101548.34
2023-04-24T20:57:43.409Z,101551.19
2023-04-24T21:00:13.748Z,101554.00
2023-04-24T21:02:42.927Z,101557.19
2023-04-24T21:05:12.124Z,101554.88
2023-04-24T21:07:41.224Z,101556.13
2023-04-24T21:10:11.012Z,101568.13
2023-04-24T21:12:39.996Z,101558.03
2023-04-24T21:15:09.297Z,101566.38
2023-04-24T21:17:38.294Z,101569.16
2023-04-24T21:20:09.194Z,101567.53
2023-04-24T21:22:38.486Z,101569.88
2023-04-24T21:25:07.997Z,101576.53
2023-04-24T21:27:38.327Z,101576.22
2023-04-24T21:30:08.116Z,101581.22
2023-04-24T21:32:37.199Z,101583.59
2023-04-24T21:35:07.130Z,101586.00
2023-04-24T21:37:37.051Z,101586.72
2023-04-24T21:40:06.863Z,101582.38
2023-04-24T21:42:35.839Z,101587.81
2023-04-24T21:45:06.070Z,101588.66
2023-04-24T21:47:35.169Z,101593.75
2023-04-24T21:50:05.517Z,101594.97
2023-04-24T21:52:34.478Z,101589.84
2023-04-24T21:55:03.498Z,101595.09
2023-04-24T21:57:32.656Z,101595.09
2023-04-24T22:00:01.992Z,101594.56
2023-04-24T22:02:33.791Z,101593.13
2023-04-24T22:05:05.282Z,101594.75
2023-04-24T22:07:37.279Z,101597.03
2023-04-24T22:10:07.416Z,101596.13
2023-04-24T22:12:37.879Z,101605.97
2023-04-24T22:15:07.587Z,101601.97
2023-04-24T22:17:37.906Z,101605.88
2023-04-24T22:20:08.240Z,101603.56
2023-04-24T22:22:37.585Z,101613.94
2023-04-24T22:25:07.145Z,101610.41
2023-04-24T22:27:36.377Z,101615.41
2023-04-24T22:30:05.645Z,101607.19
2023-04-24T22:32:34.756Z,101608.03
2023-04-24T22:35:04.855Z,101609.69
2023-04-24T22:37:34.259Z,101603.69
2023-04-24T22:40:04.333Z,101604.50
2023-04-24T22:42:33.422Z,101614.50
2023-04-24T22:45:02.438Z,101613.69
2023-04-24T22:47:31.652Z,101606.50
2023-04-24T22:50:00.746Z,101603.28
2023-04-24T22:52:31.308Z,101605.69
2023-04-24T22:55:00.282Z,101601.66
2023-04-24T22:57:30.702Z,101599.16
2023-04-24T23:00:00.063Z,101591.28
2023-04-24T23:02:29.542Z,101592.03
2023-04-24T23:04:58.667Z,101587.28
2023-04-24T23:07:27.818Z,101589.19
2023-04-24T23:09:56.852Z,101595.59
2023-04-24T23:12:25.886Z,101584.69
2023-04-24T23:14:54.865Z,101578.41
2023-04-24T23:17:23.905Z,101573.66
2023-04-24T23:19:52.908Z,101576.50
2023-04-24T23:22:21.982Z,101582.47
2023-04-24T23:24:51.413Z,101578.03
2023-04-24T23:27:20.378Z,101582.47
2023-04-24T23:29:49.886Z,101588.09
2023-04-24T23:32:18.995Z,101588.09
2023-04-24T23:34:50.996Z,101585.69
2023-04-24T23:37:20.499Z,101580.81
2023-04-24T23:39:50.687Z,101583.06
2023-04-24T23:42:19.747Z,101586.66
2023-04-24T23:44:48.812Z,101592.78
2023-04-24T23:47:17.926Z,101592.31
2023-04-24T23:49:49.426Z,101590.91
2023-04-24T23:52:18.802Z,101601.19
2023-04-24T23:54:49.610Z,101598.47
2023-04-24T23:57:24.197Z,101594.81
2023-04-24T23:59:53.278Z,101594.69
